createdAt,value
2017-09-13T00:00:33.314Z,9.3
2017-09-13T00:01:52.024Z,9.2
2017-09-13T00:03:10.707Z,9.3
2017-09-13T00:04:29.356Z,9.4
2017-09-13T00:05:48.003Z,9.6
2017-09-13T00:07:06.663Z,9.5
2017-09-13T00:08:25.305Z,9.4
2017-09-13T00:09:43.976Z,9.5
2017-09-13T00:11:02.624Z,9.5
2017-09-13T00:12:21.273Z,9.7
2017-09-13T00:13:39.930Z,9.8
2017-09-13T00:14:58.590Z,9.9
2017-09-13T00:16:17.253Z,9.9
2017-09-13T00:17:35.918Z,10
2017-09-13T00:18:54.613Z,10
2017-09-13T00:20:13.290Z,9.9
2017-09-13T00:21:31.951Z,9.9
2017-09-13T00:22:50.651Z,9.8
2017-09-13T00:24:09.347Z,9.9
2017-09-13T00:25:28.005Z,9.8
2017-09-13T00:26:46.679Z,9.7
2017-09-13T00:28:05.351Z,9.7
2017-09-13T00:29:24.052Z,9.8
2017-09-13T00:30:42.754Z,9.9
2017-09-13T00:32:01.443Z,10
2017-09-13T00:33:20.142Z,10
2017-09-13T00:34:38.809Z,10.1
2017-09-13T00:35:57.530Z,10.1
2017-09-13T00:37:16.192Z,10.1
2017-09-13T00:38:34.855Z,10.1
2017-09-13T00:39:53.552Z,10
2017-09-13T00:41:12.229Z,10
2017-09-13T00:42:30.953Z,10
2017-09-13T00:43:49.667Z,10.1
2017-09-13T00:45:08.334Z,10
2017-09-13T00:46:27.000Z,9.9
2017-09-13T00:47:45.681Z,9.8
2017-09-13T00:49:04.322Z,9.7
2017-09-13T00:50:22.994Z,9.7
2017-09-13T00:51:41.679Z,9.6
2017-09-13T00:53:00.347Z,9.6
2017-09-13T00:54:19.044Z,9.6
2017-09-13T00:55:37.750Z,9.5
2017-09-13T00:56:56.424Z,9.5
2017-09-13T00:58:15.068Z,9.5
2017-09-13T00:59:33.724Z,9.5
2017-09-13T01:00:52.377Z,9.5
2017-09-13T01:02:11.047Z,9.4
2017-09-13T01:03:29.714Z,9.4
2017-09-13T01:04:48.379Z,9.4
2017-09-13T01:06:07.057Z,9.4
2017-09-13T01:07:25.716Z,9.6
2017-09-13T01:08:44.369Z,9.7
2017-09-13T01:10:03.020Z,9.7
2017-09-13T01:11:21.694Z,9.8
2017-09-13T01:12:40.412Z,9.9
2017-09-13T01:13:59.071Z,9.8
2017-09-13T01:15:17.745Z,9.8
2017-09-13T01:16:36.404Z,9.9
2017-09-13T01:17:55.065Z,9.9
2017-09-13T01:19:13.789Z,10
2017-09-13T01:20:32.464Z,10
2017-09-13T01:21:51.127Z,10.1
2017-09-13T01:23:09.870Z,10
2017-09-13T01:24:28.539Z,10.1
2017-09-13T01:25:47.203Z,10
2017-09-13T01:27:05.920Z,10
2017-09-13T01:28:24.656Z,10
2017-09-13T01:29:43.327Z,10.1
2017-09-13T01:31:02.036Z,10.1
2017-09-13T01:32:20.701Z,10.1
2017-09-13T01:33:39.428Z,10.1
2017-09-13T01:34:58.147Z,10.1
2017-09-13T01:36:16.848Z,10.1
2017-09-13T01:37:35.513Z,10.1
2017-09-13T01:38:54.192Z,10.1
2017-09-13T01:40:12.887Z,10.1
2017-09-13T01:41:31.573Z,10.1
2017-09-13T01:42:50.239Z,10.1
2017-09-13T01:44:08.912Z,10.1
2017-09-13T01:45:27.620Z,10.1
2017-09-13T01:46:46.313Z,10.3
2017-09-13T01:48:05.035Z,10.3
2017-09-13T01:49:23.760Z,10.3
2017-09-13T01:50:42.486Z,10.3
2017-09-13T01:52:01.164Z,10.3
2017-09-13T01:53:19.879Z,10.4
2017-09-13T01:54:38.578Z,10.4
2017-09-13T01:55:57.250Z,10.5
2017-09-13T01:57:15.916Z,10.5
2017-09-13T01:58:34.589Z,10.5
2017-09-13T01:59:53.278Z,10.5
2017-09-13T02:01:11.978Z,10.6
2017-09-13T02:02:30.696Z,10.6
2017-09-13T02:03:49.362Z,10.6
2017-09-13T02:05:08.058Z,10.6
2017-09-13T02:06:26.743Z,10.6
2017-09-13T02:07:45.450Z,10.6
2017-09-13T02:09:04.144Z,10.6
2017-09-13T02:10:22.824Z,10.6
2017-09-13T02:11:41.539Z,10.6
2017-09-13T02:13:00.203Z,10.4
2017-09-13T02:14:18.863Z,10.3
2017-09-13T02:15:37.545Z,10.1
2017-09-13T02:16:56.234Z,10.1
2017-09-13T02:18:14.900Z,10.1
2017-09-13T02:19:33.616Z,10.1
2017-09-13T02:20:52.329Z,10.2
2017-09-13T02:22:10.993Z,10.2
2017-09-13T02:23:29.728Z,10.4
2017-09-13T02:24:48.386Z,10.4
2017-09-13T02:26:07.110Z,10.4
2017-09-13T02:27:25.778Z,10.4
2017-09-13T02:28:44.496Z,10.4
2017-09-13T02:30:03.161Z,10.5
2017-09-13T02:31:21.841Z,10.5
2017-09-13T02:32:40.505Z,10.5
2017-09-13T02:33:59.165Z,10.5
2017-09-13T02:35:17.833Z,10.5
2017-09-13T02:36:36.530Z,10.5
2017-09-13T02:37:55.191Z,10.5
2017-09-13T02:39:13.854Z,10.4
2017-09-13T02:40:32.528Z,10.4
2017-09-13T02:41:51.244Z,10.4
2017-09-13T02:43:09.907Z,10.4
2017-09-13T02:44:28.599Z,10.4
2017-09-13T02:45:47.268Z,10.3
2017-09-13T02:47:05.948Z,10.3
2017-09-13T02:48:24.623Z,10.3
2017-09-13T02:49:43.351Z,10.3
2017-09-13T02:51:02.060Z,10.4
2017-09-13T02:52:20.746Z,10.4
2017-09-13T02:53:39.467Z,10.4
2017-09-13T02:54:58.171Z,10.4
2017-09-13T02:56:16.891Z,10.2
2017-09-13T02:57:35.625Z,10.1
2017-09-13T02:58:54.289Z,10.1
2017-09-13T03:00:12.991Z,10.2
2017-09-13T03:01:31.659Z,10.2
2017-09-13T03:02:50.328Z,10.1
2017-09-13T03:04:09.013Z,10.2
2017-09-13T03:05:27.687Z,10.2
2017-09-13T03:06:46.405Z,10.1
2017-09-13T03:08:05.096Z,10.1
2017-09-13T03:09:23.799Z,10.1
2017-09-13T03:10:42.460Z,10.2
2017-09-13T03:12:01.197Z,10.1
2017-09-13T03:13:19.870Z,10.1
2017-09-13T03:14:38.534Z,10.1
2017-09-13T03:15:57.201Z,10.1
2017-09-13T03:17:15.881Z,10.1
2017-09-13T03:18:34.569Z,10.1
2017-09-13T03:19:53.240Z,10.2
2017-09-13T03:21:11.902Z,10.2
2017-09-13T03:22:30.563Z,10.3
2017-09-13T03:23:49.245Z,10.3
2017-09-13T03:25:07.905Z,10.3
2017-09-13T03:26:26.570Z,10.3
2017-09-13T03:27:45.248Z,10.3
2017-09-13T03:29:03.921Z,10.3
2017-09-13T03:30:22.587Z,10.3
2017-09-13T03:31:41.258Z,10.3
2017-09-13T03:32:59.970Z,10.3
2017-09-13T03:34:18.647Z,10.3
2017-09-13T03:35:37.330Z,10.3
2017-09-13T03:36:56.086Z,10.3
2017-09-13T03:38:14.743Z,10.3
2017-09-13T03:39:33.423Z,10.3
2017-09-13T03:40:52.091Z,10.2
2017-09-13T03:42:10.780Z,10.2
2017-09-13T03:43:29.448Z,10.2
2017-09-13T03:44:48.174Z,10.2
2017-09-13T03:46:06.838Z,10.2
2017-09-13T03:47:25.499Z,10.2
2017-09-13T03:48:44.157Z,10.2
2017-09-13T03:50:02.829Z,10.1
2017-09-13T03:51:21.492Z,10.1
2017-09-13T03:52:40.170Z,10.1
2017-09-13T03:53:58.863Z,10
2017-09-13T03:55:17.576Z,10
2017-09-13T03:56:36.290Z,10
2017-09-13T03:57:54.951Z,10
2017-09-13T03:59:13.629Z,10
2017-09-13T04:00:32.285Z,9.9
2017-09-13T04:01:50.962Z,9.9
2017-09-13T04:03:09.606Z,9.9
2017-09-13T04:04:28.253Z,9.8
2017-09-13T04:05:46.980Z,9.9
2017-09-13T04:07:05.640Z,9.8
2017-09-13T04:08:24.286Z,9.8
2017-09-13T04:09:42.935Z,9.8
2017-09-13T04:11:01.590Z,9.8
2017-09-13T04:12:20.261Z,9.7
2017-09-13T04:13:38.945Z,9.7
2017-09-13T04:14:57.589Z,9.6
2017-09-13T04:16:16.254Z,9.5
2017-09-13T04:17:34.909Z,9.5
2017-09-13T04:18:53.600Z,9.4
2017-09-13T04:20:12.300Z,9.3
2017-09-13T04:21:30.985Z,9.3
2017-09-13T04:22:49.647Z,9.4
2017-09-13T04:24:08.297Z,9.4
2017-09-13T04:25:26.946Z,9.4
2017-09-13T04:26:45.670Z,9.5
2017-09-13T04:28:04.314Z,9.5
2017-09-13T04:29:22.958Z,9.5
2017-09-13T04:30:41.667Z,9.5
2017-09-13T04:32:00.325Z,9.5
2017-09-13T04:33:19.033Z,9.5
2017-09-13T04:34:37.675Z,9.5
2017-09-13T04:35:56.381Z,9.4
2017-09-13T04:37:15.070Z,9.4
2017-09-13T04:38:33.714Z,9.5
2017-09-13T04:39:52.372Z,9.5
2017-09-13T04:41:11.079Z,9.4
2017-09-13T04:42:29.750Z,9.5
2017-09-13T04:43:48.394Z,9.5
2017-09-13T04:45:07.051Z,9.5
2017-09-13T04:46:25.719Z,9.5
2017-09-13T04:47:44.380Z,9.5
2017-09-13T04:49:03.032Z,9.5
2017-09-13T04:50:21.677Z,9.5
2017-09-13T04:51:40.321Z,9.5
2017-09-13T04:52:59.063Z,9.6
2017-09-13T04:54:17.715Z,9.5
2017-09-13T04:55:36.373Z,9.6
2017-09-13T04:56:55.030Z,9.7
2017-09-13T04:58:13.689Z,9.7
2017-09-13T04:59:32.400Z,9.8
2017-09-13T05:00:51.051Z,9.8
2017-09-13T05:02:09.696Z,9.9
2017-09-13T05:03:28.368Z,9.9
2017-09-13T05:04:47.073Z,9.9
2017-09-13T05:06:05.787Z,9.9
2017-09-13T05:07:24.463Z,9.9
2017-09-13T05:08:43.140Z,10
2017-09-13T05:10:01.808Z,10
2017-09-13T05:11:20.493Z,10.1
2017-09-13T05:12:39.212Z,10.1
2017-09-13T05:13:57.941Z,10.1
2017-09-13T05:15:16.607Z,10
2017-09-13T05:16:35.324Z,9.9
2017-09-13T05:17:53.984Z,9.8
2017-09-13T05:19:12.642Z,9.6
2017-09-13T05:20:31.285Z,9.5
2017-09-13T05:21:49.946Z,9.5
2017-09-13T05:23:08.654Z,9.5
2017-09-13T05:24:27.321Z,9.5
2017-09-13T05:25:45.970Z,9.5
2017-09-13T05:27:04.619Z,9.4
2017-09-13T05:28:23.265Z,9.4
2017-09-13T05:29:41.937Z,9.4
2017-09-13T05:31:00.651Z,9.4
2017-09-13T05:32:19.301Z,9.5
2017-09-13T05:33:37.958Z,9.5
2017-09-13T05:34:56.647Z,9.5
2017-09-13T05:36:15.364Z,9.6
2017-09-13T05:37:34.014Z,9.6
2017-09-13T05:38:52.666Z,9.6
2017-09-13T05:40:11.342Z,9.7
2017-09-13T05:41:30.068Z,9.8
2017-09-13T05:42:48.783Z,9.9
2017-09-13T05:44:07.457Z,9.9
2017-09-13T05:45:26.123Z,9.8
2017-09-13T05:46:44.775Z,9.7
2017-09-13T05:48:03.478Z,9.7
2017-09-13T05:49:22.128Z,9.6
2017-09-13T05:50:40.783Z,9.6
2017-09-13T05:51:59.431Z,9.5
2017-09-13T05:53:18.089Z,9.5
2017-09-13T05:54:36.737Z,9.5
2017-09-13T05:55:55.420Z,9.5
2017-09-13T05:57:14.075Z,9.5
2017-09-13T05:58:32.737Z,9.5
2017-09-13T05:59:51.388Z,9.5
2017-09-13T06:01:10.048Z,9.5
2017-09-13T06:02:28.755Z,9.5
2017-09-13T06:03:47.398Z,9.4
2017-09-13T06:05:06.045Z,9.5
2017-09-13T06:06:24.699Z,9.5
2017-09-13T06:07:43.358Z,9.5
2017-09-13T06:09:02.019Z,9.5
2017-09-13T06:10:20.667Z,9.5
2017-09-13T06:11:39.342Z,9.6
2017-09-13T06:12:57.986Z,9.6
2017-09-13T06:14:16.644Z,9.6
2017-09-13T06:15:35.320Z,9.6
2017-09-13T06:16:54.033Z,9.6
2017-09-13T06:18:12.672Z,9.6
2017-09-13T06:19:31.315Z,9.6
2017-09-13T06:20:49.964Z,9.6
2017-09-13T06:22:08.712Z,9.6
2017-09-13T06:23:27.354Z,9.6
2017-09-13T06:24:46.006Z,9.4
2017-09-13T06:26:04.662Z,9.4
2017-09-13T06:27:23.324Z,9.4
2017-09-13T06:28:42.028Z,9.4
2017-09-13T06:30:00.729Z,9.5
2017-09-13T06:31:19.408Z,9.8
2017-09-13T06:32:38.079Z,9.8
2017-09-13T06:33:56.734Z,9.7
2017-09-13T06:35:15.392Z,9.7
2017-09-13T06:36:34.043Z,9.6
2017-09-13T06:37:52.699Z,9.7
2017-09-13T06:39:11.346Z,9.7
2017-09-13T06:40:30.021Z,9.7
2017-09-13T06:41:48.725Z,9.7
2017-09-13T06:43:07.379Z,9.8
2017-09-13T06:44:26.063Z,10
2017-09-13T06:45:44.734Z,10.2
2017-09-13T06:47:03.404Z,10.3
2017-09-13T06:48:22.077Z,10.5
2017-09-13T06:49:40.742Z,10.3
2017-09-13T06:50:59.398Z,10.2
2017-09-13T06:52:18.105Z,10.1
2017-09-13T06:53:36.777Z,9.9
2017-09-13T06:54:55.466Z,9.9
2017-09-13T06:56:14.112Z,9.9
2017-09-13T06:57:32.780Z,10
2017-09-13T06:58:51.497Z,9.9
2017-09-13T07:00:10.193Z,10
2017-09-13T07:01:28.857Z,10
2017-09-13T07:02:47.551Z,10.1
2017-09-13T07:04:06.281Z,10.3
2017-09-13T07:05:24.971Z,10.3
2017-09-13T07:06:43.637Z,10.3
2017-09-13T07:08:02.298Z,10.4
2017-09-13T07:09:20.973Z,10.3
2017-09-13T07:10:39.633Z,10.3
2017-09-13T07:11:58.315Z,10.4
2017-09-13T07:13:17.027Z,10.4
2017-09-13T07:14:35.706Z,10.2
2017-09-13T07:15:54.370Z,10.3
2017-09-13T07:17:13.033Z,10.1
2017-09-13T07:18:31.698Z,10.2
2017-09-13T07:19:50.368Z,10.4
2017-09-13T07:21:09.062Z,10.3
2017-09-13T07:22:27.751Z,10.2
2017-09-13T07:23:46.424Z,10.3
2017-09-13T07:25:05.123Z,10.4
2017-09-13T07:26:23.788Z,10.6
2017-09-13T07:27:42.453Z,10.7
2017-09-13T07:29:01.129Z,10.8
2017-09-13T07:30:19.810Z,10.6
2017-09-13T07:31:38.531Z,10.4
2017-09-13T07:32:57.205Z,10.5
2017-09-13T07:34:15.921Z,10.6
2017-09-13T07:35:34.609Z,10.7
2017-09-13T07:36:53.328Z,10.8
2017-09-13T07:38:11.995Z,10.7
2017-09-13T07:39:30.649Z,10.6
2017-09-13T07:40:49.354Z,10.4
2017-09-13T07:42:08.017Z,10.3
2017-09-13T07:43:26.682Z,10.3
2017-09-13T07:44:45.363Z,10.5
2017-09-13T07:46:04.059Z,10.7
2017-09-13T07:47:22.775Z,10.8
2017-09-13T07:48:41.438Z,10.9
2017-09-13T07:50:00.157Z,10.9
2017-09-13T07:51:18.841Z,10.9
2017-09-13T07:52:37.502Z,11.1
2017-09-13T07:53:56.170Z,11.3
2017-09-13T07:55:14.870Z,11.3
2017-09-13T07:56:33.591Z,10.9
2017-09-13T07:57:52.279Z,10.8
2017-09-13T07:59:10.947Z,10.9
2017-09-13T08:00:29.626Z,10.9
2017-09-13T08:01:48.327Z,11.1
2017-09-13T08:03:07.091Z,11.4
2017-09-13T08:04:25.761Z,11.3
2017-09-13T08:05:44.472Z,11
2017-09-13T08:07:03.201Z,10.8
2017-09-13T08:08:21.877Z,10.8
2017-09-13T08:09:40.567Z,10.9
2017-09-13T08:10:59.236Z,11.3
2017-09-13T08:12:17.921Z,11.1
2017-09-13T08:13:36.607Z,11
2017-09-13T08:14:55.275Z,11
2017-09-13T08:16:13.986Z,11
2017-09-13T08:17:32.711Z,11.3
2017-09-13T08:18:51.380Z,11.5
2017-09-13T08:20:10.046Z,11.8
2017-09-13T08:21:28.710Z,11.6
2017-09-13T08:22:47.421Z,11.6
2017-09-13T08:24:06.134Z,11.5
2017-09-13T08:25:24.873Z,11.3
2017-09-13T08:26:43.548Z,11.1
2017-09-13T08:28:02.237Z,11
2017-09-13T08:29:20.896Z,11.1
2017-09-13T08:30:39.582Z,11.1
2017-09-13T08:31:58.251Z,11
2017-09-13T08:33:16.925Z,11.2
2017-09-13T08:34:35.611Z,11.3
2017-09-13T08:35:54.277Z,11.4
2017-09-13T08:37:12.943Z,11.6
2017-09-13T08:38:31.619Z,11.7
2017-09-13T08:39:50.282Z,11.6
2017-09-13T08:41:08.965Z,11.7
2017-09-13T08:42:27.653Z,11.7
2017-09-13T08:43:46.330Z,11.5
2017-09-13T08:45:05.014Z,11.4
2017-09-13T08:46:23.674Z,11.4
2017-09-13T08:47:42.348Z,11.3
2017-09-13T08:49:01.091Z,11.4
2017-09-13T08:50:19.807Z,11.6
2017-09-13T08:51:38.518Z,11.7
2017-09-13T08:52:57.187Z,12
2017-09-13T08:54:15.892Z,11.9
2017-09-13T08:55:34.591Z,12
2017-09-13T08:56:53.260Z,12
2017-09-13T08:58:11.971Z,12
2017-09-13T08:59:30.643Z,12.3
2017-09-13T09:00:49.308Z,12.3
2017-09-13T09:02:08.020Z,12.6
2017-09-13T09:03:26.684Z,13
2017-09-13T09:04:45.371Z,12.8
2017-09-13T09:06:04.041Z,12.9
2017-09-13T09:07:22.717Z,13
2017-09-13T09:08:41.430Z,12.8
2017-09-13T09:10:00.149Z,12.9
2017-09-13T09:11:18.818Z,13.1
2017-09-13T09:12:37.477Z,13.3
2017-09-13T09:13:56.190Z,13.4
2017-09-13T09:15:14.864Z,13.5
2017-09-13T09:16:33.581Z,13.7
2017-09-13T09:17:52.249Z,14
2017-09-13T09:19:10.916Z,13.8
2017-09-13T09:20:29.632Z,13.5
2017-09-13T09:21:48.296Z,13.7
2017-09-13T09:23:06.966Z,13.9
2017-09-13T09:24:25.656Z,14.1
2017-09-13T09:25:44.397Z,14
2017-09-13T09:27:03.058Z,14.1
2017-09-13T09:28:21.718Z,13.8
2017-09-13T09:29:40.435Z,13.9
2017-09-13T09:30:59.115Z,13.8
2017-09-13T09:32:17.836Z,13.8
2017-09-13T09:33:36.499Z,14
2017-09-13T09:34:55.163Z,14.2
2017-09-13T09:36:13.836Z,14.3
2017-09-13T09:37:32.499Z,14.1
2017-09-13T09:38:51.175Z,14.2
2017-09-13T09:40:09.841Z,13.9
2017-09-13T09:41:28.528Z,13.9
2017-09-13T09:42:47.251Z,14.1
2017-09-13T09:44:05.925Z,14
2017-09-13T09:45:24.604Z,14.3
2017-09-13T09:46:43.331Z,14
2017-09-13T09:48:01.998Z,14.3
2017-09-13T09:49:20.666Z,14.6
2017-09-13T09:50:39.361Z,15
2017-09-13T09:51:58.093Z,15.4
2017-09-13T09:53:16.762Z,15.7
2017-09-13T09:54:35.433Z,15.6
2017-09-13T09:55:54.102Z,15.9
2017-09-13T09:57:12.812Z,16
2017-09-13T09:58:31.516Z,16.2
2017-09-13T09:59:50.205Z,16
2017-09-13T10:01:08.879Z,16.3
2017-09-13T10:02:27.596Z,15.7
2017-09-13T10:03:46.264Z,16.1
2017-09-13T10:05:04.932Z,16.1
2017-09-13T10:06:23.597Z,16.3
2017-09-13T10:07:42.279Z,16.3
2017-09-13T10:09:00.945Z,17
2017-09-13T10:10:19.667Z,16.6
2017-09-13T10:11:38.387Z,16.1
2017-09-13T10:12:57.110Z,16.4
2017-09-13T10:14:15.776Z,16.2
2017-09-13T10:15:34.500Z,16.4
2017-09-13T10:16:53.167Z,16
2017-09-13T10:18:11.843Z,16
2017-09-13T10:19:30.513Z,16.3
2017-09-13T10:20:49.209Z,16.2
2017-09-13T10:22:07.870Z,15.9
2017-09-13T10:23:26.567Z,15.8
2017-09-13T10:24:45.231Z,15.7
2017-09-13T10:26:03.895Z,16.4
2017-09-13T10:27:22.616Z,17.2
2017-09-13T10:28:41.278Z,17.6
2017-09-13T10:29:59.940Z,17.6
2017-09-13T10:31:18.601Z,17.7
2017-09-13T10:32:37.255Z,17.4
2017-09-13T10:33:56.000Z,17.6
2017-09-13T10:35:14.668Z,17.8
2017-09-13T10:36:33.339Z,17.7
2017-09-13T10:37:52.032Z,17.5
2017-09-13T10:39:10.719Z,17.1
2017-09-13T10:40:29.394Z,17.1
2017-09-13T10:41:48.065Z,17.2
2017-09-13T10:43:06.736Z,17.1
2017-09-13T10:44:25.454Z,17
2017-09-13T10:45:44.152Z,16.7
2017-09-13T10:47:02.815Z,16.3
2017-09-13T10:48:21.493Z,16.2
2017-09-13T10:49:40.170Z,16.3
2017-09-13T10:50:58.878Z,15.9
2017-09-13T10:52:17.575Z,15.9
2017-09-13T10:53:36.291Z,15.6
2017-09-13T10:54:54.970Z,15.4
2017-09-13T10:56:13.634Z,15.3
2017-09-13T10:57:32.297Z,15.3
2017-09-13T10:58:50.967Z,14.9
2017-09-13T11:00:09.651Z,14.8
2017-09-13T11:01:28.318Z,14.8
2017-09-13T11:02:46.980Z,14.6
2017-09-13T11:04:05.683Z,14.9
2017-09-13T11:05:24.437Z,14.6
2017-09-13T11:06:43.111Z,14.7
2017-09-13T11:08:01.793Z,14.6
2017-09-13T11:09:20.459Z,14.9
2017-09-13T11:10:39.154Z,15.1
2017-09-13T11:11:57.818Z,15.3
2017-09-13T11:13:16.518Z,15
2017-09-13T11:14:35.200Z,14.7
2017-09-13T11:15:53.954Z,14.6
2017-09-13T11:17:12.623Z,14.8
2017-09-13T11:18:31.330Z,14.8
2017-09-13T11:19:49.992Z,14.8
2017-09-13T11:21:08.659Z,14.6
2017-09-13T11:22:27.395Z,14.4
2017-09-13T11:23:46.061Z,14.3
2017-09-13T11:25:04.726Z,14.2
2017-09-13T11:26:23.406Z,14.2
2017-09-13T11:27:42.072Z,13.9
2017-09-13T11:29:00.781Z,14
2017-09-13T11:30:19.445Z,14.1
2017-09-13T11:31:38.120Z,14.3
2017-09-13T11:32:56.785Z,15.5
2017-09-13T11:34:15.458Z,16.2
2017-09-13T11:35:34.135Z,16.3
2017-09-13T11:36:52.818Z,15.7
2017-09-13T11:38:11.479Z,15.3
2017-09-13T11:39:30.207Z,15.4
2017-09-13T11:40:48.891Z,15.1
2017-09-13T11:42:07.628Z,14.9
2017-09-13T11:43:26.339Z,15.1
2017-09-13T11:44:45.007Z,16.3
2017-09-13T11:46:03.717Z,16.9
2017-09-13T11:47:22.451Z,17
2017-09-13T11:48:41.156Z,17.1
2017-09-13T11:49:59.822Z,17.2
2017-09-13T11:51:18.484Z,17.8
2017-09-13T11:52:37.152Z,18.5
2017-09-13T11:53:55.859Z,17.9
2017-09-13T11:55:14.569Z,17.7
2017-09-13T11:56:33.230Z,18
2017-09-13T11:57:51.937Z,17.7
2017-09-13T11:59:10.605Z,18.4
2017-09-13T12:00:29.285Z,18.5
2017-09-13T12:01:47.947Z,19
2017-09-13T12:03:06.665Z,19.2
2017-09-13T12:04:25.331Z,19.1
2017-09-13T12:05:44.034Z,18.4
2017-09-13T12:07:02.727Z,18.2
2017-09-13T12:08:21.404Z,17.9
2017-09-13T12:09:40.075Z,17.2
2017-09-13T12:10:58.768Z,17.1
2017-09-13T12:12:17.448Z,16.8
2017-09-13T12:13:36.147Z,16.5
2017-09-13T12:14:54.864Z,16.4
2017-09-13T12:16:13.535Z,16.5
2017-09-13T12:17:32.231Z,16.3
2017-09-13T12:18:50.903Z,16.5
2017-09-13T12:20:09.571Z,16.1
2017-09-13T12:21:28.242Z,15.6
2017-09-13T12:22:46.941Z,15.2
2017-09-13T12:24:05.626Z,15.2
2017-09-13T12:25:24.294Z,15.5
2017-09-13T12:26:42.954Z,15.3
2017-09-13T12:28:01.665Z,15.4
2017-09-13T12:29:20.355Z,15.7
2017-09-13T12:30:39.020Z,16
2017-09-13T12:31:57.694Z,16.5
2017-09-13T12:33:16.380Z,16.7
2017-09-13T12:34:35.081Z,16.8
2017-09-13T12:35:53.772Z,16.9
2017-09-13T12:37:12.488Z,17.4
2017-09-13T12:38:31.163Z,17.6
2017-09-13T12:39:49.867Z,18.2
2017-09-13T12:41:08.546Z,18.5
2017-09-13T12:42:27.210Z,18.6
2017-09-13T12:43:45.926Z,17.9
2017-09-13T12:45:04.592Z,17.8
2017-09-13T12:46:23.262Z,17.9
2017-09-13T12:47:41.987Z,17.3
2017-09-13T12:49:00.659Z,17
2017-09-13T12:50:19.364Z,16.7
2017-09-13T12:51:38.023Z,16.4
2017-09-13T12:52:56.689Z,16.1
2017-09-13T12:54:15.348Z,15.7
2017-09-13T12:55:34.028Z,15.3
2017-09-13T12:56:52.704Z,15
2017-09-13T12:58:11.365Z,15
2017-09-13T12:59:30.026Z,15.2
2017-09-13T13:00:48.773Z,15.9
2017-09-13T13:02:07.444Z,16.9
2017-09-13T13:03:26.114Z,18.1
2017-09-13T13:04:44.790Z,19.6
2017-09-13T13:06:03.495Z,20.9
2017-09-13T13:07:22.165Z,21.6
2017-09-13T13:08:40.886Z,21.9
2017-09-13T13:09:59.608Z,21.5
2017-09-13T13:11:18.342Z,20.9
2017-09-13T13:12:37.059Z,20.4
2017-09-13T13:13:55.718Z,20.3
2017-09-13T13:15:14.385Z,19.8
2017-09-13T13:16:33.059Z,19.5
2017-09-13T13:17:51.724Z,19.5
2017-09-13T13:19:10.443Z,19.1
2017-09-13T13:20:29.110Z,19.1
2017-09-13T13:21:47.790Z,18.6
2017-09-13T13:23:06.476Z,18.4
2017-09-13T13:24:25.179Z,18.6
2017-09-13T13:25:43.852Z,18.9
2017-09-13T13:27:02.527Z,18.9
2017-09-13T13:28:21.229Z,18.5
2017-09-13T13:29:39.899Z,18.5
2017-09-13T13:30:58.598Z,18.8
2017-09-13T13:32:17.307Z,19.2
2017-09-13T13:33:35.980Z,19.5
2017-09-13T13:34:54.652Z,19.6
2017-09-13T13:36:13.330Z,20
2017-09-13T13:37:32.018Z,20.2
2017-09-13T13:38:50.681Z,19.9
2017-09-13T13:40:09.400Z,19.5
2017-09-13T13:41:28.069Z,18.9
2017-09-13T13:42:46.815Z,18.9
2017-09-13T13:44:05.479Z,19.1
2017-09-13T13:45:24.152Z,18.8
2017-09-13T13:46:42.827Z,18.7
2017-09-13T13:48:01.503Z,18.1
2017-09-13T13:49:20.215Z,18.3
2017-09-13T13:50:38.935Z,17.7
2017-09-13T13:51:57.603Z,17.8
2017-09-13T13:53:16.287Z,18
2017-09-13T13:54:34.989Z,17.8
2017-09-13T13:55:53.672Z,17.9
2017-09-13T13:57:12.389Z,18
2017-09-13T13:58:31.330Z,18.2
2017-09-13T13:59:49.994Z,18.2
2017-09-13T14:01:08.687Z,18.5
2017-09-13T14:02:27.410Z,18.3
2017-09-13T14:03:46.100Z,18.3
2017-09-13T14:05:04.826Z,18.1
2017-09-13T14:06:23.507Z,18
2017-09-13T14:07:42.171Z,17.9
2017-09-13T14:09:00.887Z,18.5
2017-09-13T14:10:19.611Z,18.6
2017-09-13T14:11:38.302Z,19.5
2017-09-13T14:12:56.966Z,20.4
2017-09-13T14:14:15.662Z,21.2
2017-09-13T14:15:34.330Z,20.4
2017-09-13T14:16:52.996Z,20
2017-09-13T14:18:11.712Z,20.2
2017-09-13T14:19:30.402Z,20.4
2017-09-13T14:20:49.067Z,20.7
2017-09-13T14:22:07.722Z,21.5
2017-09-13T14:23:26.391Z,22.6
2017-09-13T14:24:45.080Z,22.6
2017-09-13T14:26:03.794Z,21.6
2017-09-13T14:27:22.512Z,22
2017-09-13T14:28:41.218Z,21.8
2017-09-13T14:29:59.896Z,22
2017-09-13T14:31:18.598Z,22.6
2017-09-13T14:32:37.287Z,22
2017-09-13T14:33:55.993Z,21.7
2017-09-13T14:35:14.684Z,21.4
2017-09-13T14:36:33.371Z,21
2017-09-13T14:37:52.100Z,21.6
2017-09-13T14:39:10.817Z,22
2017-09-13T14:40:29.537Z,21.3
2017-09-13T14:41:48.235Z,20.7
2017-09-13T14:43:06.914Z,20.9
2017-09-13T14:44:25.583Z,21.6
2017-09-13T14:45:44.305Z,22.1
2017-09-13T14:47:03.050Z,22.3
2017-09-13T14:48:21.727Z,22.4
2017-09-13T14:49:40.395Z,21.5
2017-09-13T14:50:59.093Z,21.6
2017-09-13T14:52:17.759Z,23.3
2017-09-13T14:53:36.493Z,25
2017-09-13T14:54:55.164Z,24.1
2017-09-13T14:56:13.857Z,22
2017-09-13T14:57:32.526Z,20.5
2017-09-13T14:58:51.192Z,19.8
2017-09-13T15:00:09.860Z,18.9
2017-09-13T15:01:28.541Z,18.5
2017-09-13T15:02:47.209Z,18.3
2017-09-13T15:04:05.931Z,18.2
2017-09-13T15:05:24.603Z,17.9
2017-09-13T15:06:43.296Z,17.9
2017-09-13T15:08:01.963Z,17.8
2017-09-13T15:09:20.634Z,17.7
2017-09-13T15:10:39.343Z,17.7
2017-09-13T15:11:58.054Z,17.7
2017-09-13T15:13:16.752Z,17.6
2017-09-13T15:14:35.478Z,17.4
2017-09-13T15:15:54.153Z,17.6
2017-09-13T15:17:12.866Z,17.5
2017-09-13T15:18:31.538Z,17.3
2017-09-13T15:19:50.199Z,17.2
2017-09-13T15:21:08.873Z,17.2
2017-09-13T15:22:27.551Z,16.9
2017-09-13T15:23:46.246Z,17
2017-09-13T15:25:04.911Z,17.1
2017-09-13T15:26:23.573Z,17.1
2017-09-13T15:27:42.276Z,16.8
2017-09-13T15:29:00.971Z,16.8
2017-09-13T15:30:19.660Z,16.8
2017-09-13T15:31:38.342Z,16.6
2017-09-13T15:32:57.028Z,16.3
2017-09-13T15:34:15.697Z,16.4
2017-09-13T15:35:34.366Z,16.4
2017-09-13T15:36:53.060Z,16.6
2017-09-13T15:38:11.798Z,16.5
2017-09-13T15:39:30.469Z,16.2
2017-09-13T15:40:49.135Z,16.1
2017-09-13T15:42:07.861Z,16.2
2017-09-13T15:43:26.532Z,16.1
2017-09-13T15:44:45.217Z,16.1
2017-09-13T15:46:03.883Z,16
2017-09-13T15:47:22.570Z,16.1
2017-09-13T15:48:41.309Z,16
2017-09-13T15:49:59.980Z,16
2017-09-13T15:51:18.646Z,16
2017-09-13T15:52:37.307Z,16.2
2017-09-13T15:53:55.984Z,16.2
2017-09-13T15:55:14.669Z,16
2017-09-13T15:56:33.339Z,15.8
2017-09-13T15:57:52.013Z,15.7
2017-09-13T15:59:10.738Z,15.6
2017-09-13T16:00:29.416Z,15.5
2017-09-13T16:01:48.079Z,15.3
2017-09-13T16:03:06.797Z,15.2
2017-09-13T16:04:25.501Z,15.2
2017-09-13T16:05:44.185Z,15.2
2017-09-13T16:07:02.886Z,15.1
2017-09-13T16:08:21.559Z,15
2017-09-13T16:09:40.233Z,14.9
2017-09-13T16:10:58.942Z,14.9
2017-09-13T16:12:17.619Z,14.8
2017-09-13T16:13:36.283Z,14.9
2017-09-13T16:14:54.957Z,14.9
2017-09-13T16:16:13.617Z,14.8
2017-09-13T16:17:32.287Z,14.8
2017-09-13T16:18:50.963Z,14.7
2017-09-13T16:20:09.648Z,14.6
2017-09-13T16:21:28.364Z,14.5
2017-09-13T16:22:47.037Z,14.5
2017-09-13T16:24:05.702Z,14.4
2017-09-13T16:25:24.394Z,14.4
2017-09-13T16:26:43.090Z,14.3
2017-09-13T16:28:01.761Z,14.3
2017-09-13T16:29:20.480Z,14.3
2017-09-13T16:30:39.153Z,14.3
2017-09-13T16:31:57.843Z,14.3
2017-09-13T16:33:16.539Z,14.3
2017-09-13T16:34:35.209Z,14.4
2017-09-13T16:35:53.896Z,14.4
2017-09-13T16:37:12.575Z,14.5
2017-09-13T16:38:31.279Z,14.5
2017-09-13T16:39:50.007Z,14.4
2017-09-13T16:41:08.694Z,14.4
2017-09-13T16:42:27.413Z,14.4
2017-09-13T16:43:46.113Z,14.3
2017-09-13T16:45:04.887Z,14.3
2017-09-13T16:46:23.568Z,14.3
2017-09-13T16:47:42.235Z,14.3
2017-09-13T16:49:00.931Z,14.2
2017-09-13T16:50:19.609Z,14.1
2017-09-13T16:51:38.317Z,14.1
2017-09-13T16:52:57.027Z,14.1
2017-09-13T16:54:15.697Z,14.1
2017-09-13T16:55:34.365Z,14
2017-09-13T16:56:53.047Z,13.9
2017-09-13T16:58:11.716Z,13.8
2017-09-13T16:59:30.412Z,13.7
2017-09-13T17:00:49.077Z,13.6
2017-09-13T17:02:07.778Z,13.6
2017-09-13T17:03:26.448Z,13.6
2017-09-13T17:04:45.115Z,13.6
2017-09-13T17:06:03.818Z,13.6
2017-09-13T17:07:22.524Z,13.6
2017-09-13T17:08:41.189Z,13.6
2017-09-13T17:09:59.858Z,13.6
2017-09-13T17:11:18.520Z,13.6
2017-09-13T17:12:37.211Z,13.5
2017-09-13T17:13:55.939Z,13.5
2017-09-13T17:15:14.660Z,13.4
2017-09-13T17:16:33.386Z,13.5
2017-09-13T17:17:52.054Z,13.4
2017-09-13T17:19:10.771Z,13.3
2017-09-13T17:20:29.442Z,13.3
2017-09-13T17:21:48.111Z,13.4
2017-09-13T17:23:06.840Z,13.6
2017-09-13T17:24:25.513Z,13.7
2017-09-13T17:25:44.212Z,13.7
2017-09-13T17:27:02.878Z,13.8
2017-09-13T17:28:21.623Z,13.8
2017-09-13T17:29:40.340Z,13.8
2017-09-13T17:30:59.059Z,13.9
2017-09-13T17:32:17.754Z,13.7
2017-09-13T17:33:36.479Z,13.5
2017-09-13T17:34:55.153Z,13.2
2017-09-13T17:36:13.831Z,13
2017-09-13T17:37:32.536Z,12.8
2017-09-13T17:38:51.218Z,12.8
2017-09-13T17:40:09.926Z,12.7
2017-09-13T17:41:28.620Z,12.7